createdAt,value
2023-02-11T00:00:48.988Z,94437.38
2023-02-11T00:03:32.153Z,94436.47
2023-02-11T00:06:16.561Z,94438.06
2023-02-11T00:08:59.896Z,94439.78
2023-02-11T00:11:42.757Z,94429.63
2023-02-11T00:14:25.572Z,94434.72
2023-02-11T00:17:08.346Z,94427.97
2023-02-11T00:19:51.545Z,94427.34
2023-02-11T00:22:35.779Z,94422.34
2023-02-11T00:25:18.559Z,94419.78
2023-02-11T00:28:01.495Z,94423.25
2023-02-11T00:30:44.477Z,94414.94
2023-02-11T00:33:27.410Z,94421.97
2023-02-11T00:36:14.247Z,94418.56
2023-02-11T00:38:59.310Z,94426.88
2023-02-11T00:41:42.442Z,94420.97
2023-02-11T00:44:25.287Z,94425.97
2023-02-11T00:47:08.106Z,94425.13
2023-02-11T00:49:52.043Z,94425.13
2023-02-11T00:52:35.545Z,94428.59
2023-02-11T00:55:20.141Z,94428.72
2023-02-11T00:58:02.750Z,94435.78
2023-02-11T01:00:45.665Z,94422.41
2023-02-11T01:03:30.063Z,94429.03
2023-02-11T01:06:13.323Z,94431.59
2023-02-11T01:08:56.189Z,94427.34
2023-02-11T01:11:40.330Z,94414.56
2023-02-11T01:14:23.217Z,94411.00
2023-02-11T01:17:07.628Z,94405.75
2023-02-11T01:19:50.435Z,94411.56
2023-02-11T01:22:34.316Z,94407.38
2023-02-11T01:25:17.302Z,94403.22
2023-02-11T01:28:01.505Z,94400.72
2023-02-11T01:30:46.803Z,94404.13
2023-02-11T01:33:30.682Z,94397.31
2023-02-11T01:36:14.635Z,94390.34
2023-02-11T01:38:57.412Z,94387.75
2023-02-11T01:41:40.230Z,94390.34
2023-02-11T01:44:31.323Z,94386.94
2023-02-11T01:47:14.082Z,94384.44
2023-02-11T01:49:58.917Z,94383.69
2023-02-11T01:52:46.285Z,94372.72
2023-02-11T01:55:49.055Z,94374.41
2023-02-11T01:58:34.961Z,94373.69
2023-02-11T02:01:26.061Z,94362.88
2023-02-11T02:04:10.612Z,94367.66
2023-02-11T02:06:59.050Z,94363.38
2023-02-11T02:09:46.083Z,94359.91
2023-02-11T02:12:28.877Z,94359.84
2023-02-11T02:15:30.845Z,94357.63
2023-02-11T02:18:28.738Z,94350.97
2023-02-11T02:21:26.089Z,94350.97
2023-02-11T02:24:56.390Z,94350.13
2023-02-11T02:27:47.039Z,94337.44
2023-02-11T02:30:55.963Z,94348.47
2023-02-11T02:33:47.031Z,94337.66
2023-02-11T02:36:35.549Z,94327.50
2023-02-11T02:39:25.004Z,94323.28
2023-02-11T02:42:08.365Z,94324.16
2023-02-11T02:44:52.392Z,94316.84
2023-02-11T02:47:35.385Z,94325.28
2023-02-11T02:50:30.090Z,94327.88
2023-02-11T02:53:19.153Z,94321.16
2023-02-11T02:56:07.636Z,94317.66
2023-02-11T02:59:02.426Z,94329.38
2023-02-11T03:01:57.932Z,94328.50
2023-02-11T03:04:51.243Z,94317.56
2023-02-11T03:07:43.402Z,94321.75
2023-02-11T03:10:29.880Z,94317.47
2023-02-11T03:13:16.921Z,94317.44
2023-02-11T03:16:03.251Z,94324.19
2023-02-11T03:18:51.191Z,94327.69
2023-02-11T03:21:36.850Z,94321.03
2023-02-11T03:24:25.818Z,94317.56
2023-02-11T03:27:14.513Z,94312.38
2023-02-11T03:30:03.046Z,94314.59
2023-02-11T03:32:52.450Z,94316.91
2023-02-11T03:35:40.635Z,94309.94
2023-02-11T03:38:27.046Z,94309.06
2023-02-11T03:41:12.421Z,94312.50
2023-02-11T03:43:58.232Z,94308.31
2023-02-11T03:46:45.595Z,94310.72
2023-02-11T03:49:29.856Z,94318.38
2023-02-11T03:52:13.913Z,94317.56
2023-02-11T03:55:01.302Z,94317.41
2023-02-11T03:57:45.762Z,94318.25
2023-02-11T04:00:30.834Z,94318.25
2023-02-11T04:03:13.893Z,94320.09
2023-02-11T04:05:56.708Z,94312.41
2023-02-11T04:08:39.508Z,94319.94
2023-02-11T04:11:22.298Z,94320.78
2023-02-11T04:14:06.501Z,94320.03
2023-02-11T04:16:49.308Z,94310.75
2023-02-11T04:19:32.106Z,94311.66
2023-02-11T04:22:14.973Z,94312.50
2023-02-11T04:24:58.068Z,94315.78
2023-02-11T04:27:40.920Z,94305.56
2023-02-11T04:30:26.255Z,94294.66
2023-02-11T04:33:09.114Z,94293.00
2023-02-11T04:35:52.120Z,94296.56
2023-02-11T04:38:35.160Z,94294.97
2023-02-11T04:41:17.959Z,94298.53
2023-02-11T04:44:00.776Z,94294.28
2023-02-11T04:46:44.921Z,94306.84
2023-02-11T04:49:27.741Z,94298.28
2023-02-11T04:52:10.664Z,94307.66
2023-02-11T04:54:53.440Z,94300.13
2023-02-11T04:57:36.292Z,94298.41
2023-02-11T05:00:19.175Z,94290.66
2023-02-11T05:03:03.320Z,94290.47
2023-02-11T05:05:46.153Z,94286.94
2023-02-11T05:08:29.324Z,94275.00
2023-02-11T05:11:17.608Z,94280.00
2023-02-11T05:14:00.540Z,94279.19
2023-02-11T05:16:43.428Z,94277.59
2023-02-11T05:19:27.927Z,94274.13
2023-02-11T05:22:10.539Z,94263.97
2023-02-11T05:24:53.340Z,94271.44
2023-02-11T05:27:36.181Z,94269.72
2023-02-11T05:30:18.962Z,94263.69
2023-02-11T05:33:01.792Z,94253.50
2023-02-11T05:35:45.959Z,94268.59
2023-02-11T05:38:28.990Z,94270.97
2023-02-11T05:41:12.563Z,94265.91
2023-02-11T05:43:55.398Z,94259.13
2023-02-11T05:46:38.371Z,94264.13
2023-02-11T05:49:21.255Z,94262.44
2023-02-11T05:52:05.753Z,94259.81
2023-02-11T05:54:48.406Z,94254.81
2023-02-11T05:57:31.292Z,94259.72
2023-02-11T06:00:15.704Z,94271.53
2023-02-11T06:02:58.438Z,94266.53
2023-02-11T06:05:43.213Z,94264.56
2023-02-11T06:08:27.400Z,94287.25
2023-02-11T06:11:10.316Z,94275.38
2023-02-11T06:13:53.198Z,94282.94
2023-02-11T06:16:36.040Z,94268.53
2023-02-11T06:19:18.799Z,94276.09
2023-02-11T06:22:01.650Z,94271.06
2023-02-11T06:25:00.314Z,94262.44
2023-02-11T06:27:44.018Z,94260.72
2023-02-11T06:30:26.858Z,94261.63
2023-02-11T06:33:09.649Z,94267.78
2023-02-11T06:35:52.822Z,94281.16
2023-02-11T06:38:35.749Z,94268.28
2023-02-11T06:41:20.576Z,94288.25
2023-02-11T06:44:03.389Z,94291.53
2023-02-11T06:46:46.568Z,94297.44
2023-02-11T06:49:29.419Z,94295.72
2023-02-11T06:52:12.193Z,94293.06
2023-02-11T06:54:55.217Z,94301.41
2023-02-11T06:57:39.373Z,94305.94
2023-02-11T07:00:22.509Z,94293.31
2023-02-11T07:03:05.414Z,94296.50
2023-02-11T07:05:48.422Z,94291.25
2023-02-11T07:08:31.346Z,94282.69
2023-02-11T07:11:16.094Z,94286.03
2023-02-11T07:14:03.324Z,94292.78
2023-02-11T07:16:46.128Z,94293.53
2023-02-11T07:19:28.990Z,94290.19
2023-02-11T07:22:11.750Z,94302.03
2023-02-11T07:24:54.550Z,94315.63
2023-02-11T07:27:37.381Z,94296.81
2023-02-11T07:30:21.817Z,94303.44
2023-02-11T07:33:04.619Z,94305.66
2023-02-11T07:35:47.477Z,94308.16
2023-02-11T07:38:30.290Z,94296.41
2023-02-11T07:41:15.219Z,94297.16
2023-02-11T07:43:58.028Z,94297.78
2023-02-11T07:46:45.212Z,94299.34
2023-02-11T07:49:28.225Z,94293.38
2023-02-11T07:52:11.030Z,94294.00
2023-02-11T07:54:53.794Z,94283.72
2023-02-11T07:57:36.849Z,94291.78
2023-02-11T08:00:21.186Z,94280.47
2023-02-11T08:03:05.425Z,94287.06
2023-02-11T08:05:48.378Z,94295.94
2023-02-11T08:08:31.257Z,94300.00
2023-02-11T08:11:15.957Z,94301.50
2023-02-11T08:13:58.939Z,94305.84
2023-02-11T08:16:42.162Z,94306.09
2023-02-11T08:19:27.440Z,94302.66
2023-02-11T08:22:10.259Z,94298.22
2023-02-11T08:24:53.063Z,94284.16
2023-02-11T08:27:35.844Z,94284.09
2023-02-11T08:30:18.671Z,94280.34
2023-02-11T08:33:01.457Z,94281.81
2023-02-11T08:35:45.612Z,94276.25
2023-02-11T08:38:28.434Z,94272.59
2023-02-11T08:41:11.954Z,94284.88
2023-02-11T08:43:54.757Z,94292.19
2023-02-11T08:46:37.585Z,94286.66
2023-02-11T08:49:20.601Z,94280.50
2023-02-11T08:52:05.064Z,94284.25
2023-02-11T08:54:48.174Z,94279.53
2023-02-11T08:57:30.986Z,94300.91
2023-02-11T09:00:15.424Z,94297.06
2023-02-11T09:02:58.216Z,94288.78
2023-02-11T09:05:42.671Z,94275.75
2023-02-11T09:08:26.653Z,94278.78
2023-02-11T09:11:10.185Z,94280.09
2023-02-11T09:13:54.532Z,94278.97
2023-02-11T09:16:37.570Z,94287.25
2023-02-11T09:19:20.938Z,94294.97
2023-02-11T09:22:03.976Z,94283.81
2023-02-11T09:24:48.110Z,94293.09
2023-02-11T09:27:30.912Z,94312.59
2023-02-11T09:30:14.462Z,94308.16
2023-02-11T09:32:57.283Z,94307.25
2023-02-11T09:35:40.299Z,94308.78
2023-02-11T09:38:23.082Z,94314.78
2023-02-11T09:41:08.531Z,94314.06
2023-02-11T09:43:54.523Z,94314.25
2023-02-11T09:46:41.254Z,94311.00
2023-02-11T09:49:28.313Z,94305.09
2023-02-11T09:52:20.161Z,94307.81
2023-02-11T09:55:05.489Z,94303.38
2023-02-11T09:57:49.937Z,94298.19
2023-02-11T10:00:38.332Z,94302.22
2023-02-11T10:04:08.649Z,94288.25
2023-02-11T10:06:54.188Z,94283.47
2023-02-11T10:09:50.805Z,94275.59
2023-02-11T10:12:46.484Z,94283.88
2023-02-11T10:15:43.255Z,94282.75
2023-02-11T10:18:41.376Z,94280.91
2023-02-11T10:21:33.803Z,94286.69
2023-02-11T10:24:18.566Z,94278.94
2023-02-11T10:27:02.608Z,94269.22
2023-02-11T10:29:50.259Z,94275.97
2023-02-11T10:32:43.529Z,94271.59
2023-02-11T10:35:27.230Z,94266.34
2023-02-11T10:38:10.369Z,94277.94
2023-02-11T10:40:53.347Z,94277.50
2023-02-11T10:43:36.389Z,94261.28
2023-02-11T10:46:23.923Z,94255.84
2023-02-11T10:49:08.179Z,94256.31
2023-02-11T10:51:50.984Z,94251.41
2023-02-11T10:54:33.940Z,94244.97
2023-02-11T10:57:20.830Z,94242.69
2023-02-11T11:00:20.602Z,94245.16
2023-02-11T11:03:05.612Z,94234.78
2023-02-11T11:05:51.521Z,94243.41
2023-02-11T11:08:43.236Z,94241.22
2023-02-11T11:11:27.355Z,94248.16
2023-02-11T11:14:20.545Z,94243.00
2023-02-11T11:17:03.392Z,94236.50
2023-02-11T11:19:46.222Z,94237.53
2023-02-11T11:22:30.437Z,94238.06
2023-02-11T11:25:24.433Z,94231.72
2023-02-11T11:28:10.414Z,94223.97
2023-02-11T11:30:56.554Z,94221.50
2023-02-11T11:33:44.058Z,94224.06
2023-02-11T11:36:35.952Z,94223.34
2023-02-11T11:39:24.421Z,94208.22
2023-02-11T11:42:25.869Z,94198.16
2023-02-11T11:45:25.777Z,94219.06
2023-02-11T11:48:19.541Z,94209.53
2023-02-11T11:51:05.120Z,94200.41
2023-02-11T11:53:54.476Z,94195.59
2023-02-11T11:56:43.534Z,94201.84
2023-02-11T11:59:26.488Z,94206.56
2023-02-11T12:02:35.485Z,94206.34
2023-02-11T12:05:26.694Z,94212.16
2023-02-11T12:08:17.024Z,94215.03
2023-02-11T12:11:08.341Z,94209.31
2023-02-11T12:14:07.250Z,94206.34
2023-02-11T12:16:58.242Z,94206.53
2023-02-11T12:19:56.536Z,94203.25
2023-02-11T12:22:48.305Z,94204.25
2023-02-11T12:25:38.655Z,94202.31
2023-02-11T12:28:35.358Z,94187.97
2023-02-11T12:31:33.586Z,94185.41
2023-02-11T12:34:37.153Z,94185.13
2023-02-11T12:37:33.074Z,94183.78
2023-02-11T12:40:22.007Z,94177.44
2023-02-11T12:43:17.279Z,94182.78
2023-02-11T12:46:18.244Z,94165.28
2023-02-11T12:49:27.806Z,94162.50
2023-02-11T12:52:26.231Z,94171.19
2023-02-11T12:55:18.058Z,94174.59
2023-02-11T12:58:02.806Z,94176.31
2023-02-11T13:00:52.096Z,94172.84
2023-02-11T13:03:41.180Z,94174.78
2023-02-11T13:06:30.069Z,94178.88
2023-02-11T13:09:20.998Z,94181.94
2023-02-11T13:12:26.879Z,94161.03
2023-02-11T13:15:16.208Z,94165.97
2023-02-11T13:18:05.510Z,94172.53
2023-02-11T13:20:54.724Z,94187.16
2023-02-11T13:23:45.776Z,94175.28
2023-02-11T13:26:35.053Z,94165.06
2023-02-11T13:29:28.869Z,94170.16
2023-02-11T13:32:13.539Z,94166.81
2023-02-11T13:34:57.449Z,94158.19
2023-02-11T13:37:40.815Z,94150.31
2023-02-11T13:40:26.916Z,94156.75
2023-02-11T13:43:22.310Z,94157.78
2023-02-11T13:46:07.314Z,94164.13
2023-02-11T13:48:53.061Z,94159.22
2023-02-11T13:51:38.465Z,94157.25
2023-02-11T13:54:26.177Z,94141.81
2023-02-11T13:57:41.340Z,94140.50
2023-02-11T14:00:50.367Z,94144.97
2023-02-11T14:03:53.424Z,94150.00
2023-02-11T14:07:01.927Z,94160.63
2023-02-11T14:09:44.785Z,94150.50
2023-02-11T14:12:35.724Z,94157.03
2023-02-11T14:15:27.561Z,94153.06
2023-02-11T14:18:58.321Z,94147.03
2023-02-11T14:21:43.893Z,94144.34
2023-02-11T14:24:50.978Z,94142.88
2023-02-11T14:27:41.747Z,94151.41
2023-02-11T14:30:35.801Z,94152.94
2023-02-11T14:33:49.148Z,94141.38
2023-02-11T14:36:51.843Z,94132.53
2023-02-11T14:39:52.698Z,94145.66
2023-02-11T14:42:38.583Z,94148.22
2023-02-11T14:45:26.737Z,94146.78
2023-02-11T14:48:17.916Z,94144.09
2023-02-11T14:51:04.397Z,94156.09
2023-02-11T14:53:50.130Z,94153.41
2023-02-11T14:56:34.431Z,94135.94
2023-02-11T14:59:20.524Z,94137.28
2023-02-11T15:02:03.360Z,94142.84
2023-02-11T15:04:47.476Z,94131.69
2023-02-11T15:07:30.315Z,94136.72
2023-02-11T15:10:19.876Z,94133.03
2023-02-11T15:13:03.885Z,94131.72
2023-02-11T15:15:47.889Z,94128.91
2023-02-11T15:18:38.284Z,94128.84
2023-02-11T15:21:24.671Z,94126.28
2023-02-11T15:24:23.967Z,94140.78
2023-02-11T15:27:16.113Z,94143.25
2023-02-11T15:29:59.020Z,94145.63
2023-02-11T15:32:45.058Z,94150.72
2023-02-11T15:35:30.216Z,94151.25
2023-02-11T15:38:15.475Z,94149.59
2023-02-11T15:41:00.828Z,94145.41
2023-02-11T15:43:45.558Z,94154.78
2023-02-11T15:46:37.733Z,94164.81
2023-02-11T15:49:21.469Z,94174.72
2023-02-11T15:52:05.438Z,94164.06
2023-02-11T15:54:50.024Z,94168.56
2023-02-11T15:57:32.693Z,94174.66
2023-02-11T16:00:17.861Z,94179.63
2023-02-11T16:03:00.796Z,94190.09
2023-02-11T16:05:43.580Z,94174.84
2023-02-11T16:08:29.865Z,94176.97
2023-02-11T16:11:27.475Z,94173.28
2023-02-11T16:14:23.593Z,94169.94
2023-02-11T16:17:09.894Z,94171.34
2023-02-11T16:19:54.755Z,94177.41
2023-02-11T16:22:39.708Z,94170.13
2023-02-11T16:25:24.542Z,94176.19
2023-02-11T16:28:16.913Z,94178.34
2023-02-11T16:31:02.445Z,94179.63
2023-02-11T16:33:45.452Z,94177.00
2023-02-11T16:36:28.383Z,94174.97
2023-02-11T16:39:11.807Z,94184.19
2023-02-11T16:41:54.652Z,94195.56
2023-02-11T16:44:39.104Z,94193.97
2023-02-11T16:47:26.166Z,94201.63
2023-02-11T16:50:11.521Z,94211.31
2023-02-11T16:52:55.132Z,94210.31
2023-02-11T16:55:38.855Z,94213.59
2023-02-11T16:58:21.752Z,94206.81
2023-02-11T17:01:06.024Z,94213.47
2023-02-11T17:03:49.580Z,94224.88
2023-02-11T17:06:32.592Z,94213.47
2023-02-11T17:09:19.893Z,94222.50
2023-02-11T17:12:02.887Z,94229.56
2023-02-11T17:14:45.785Z,94232.94
2023-02-11T17:17:30.384Z,94234.00
2023-02-11T17:20:13.906Z,94228.09
2023-02-11T17:22:56.724Z,94229.22
2023-02-11T17:25:40.666Z,94231.84
2023-02-11T17:28:23.538Z,94226.47
2023-02-11T17:31:09.785Z,94209.28
2023-02-11T17:33:53.978Z,94213.31
2023-02-11T17:36:36.759Z,94223.25
2023-02-11T17:39:21.127Z,94220.41
2023-02-11T17:42:05.475Z,94218.56
2023-02-11T17:44:48.233Z,94225.78
2023-02-11T17:47:31.076Z,94220.31
2023-02-11T17:50:15.175Z,94230.63
2023-02-11T17:52:58.161Z,94233.09
2023-02-11T17:55:41.294Z,94228.53
2023-02-11T17:58:24.130Z,94250.59
2023-02-11T18:01:07.092Z,94233.53
2023-02-11T18:03:49.974Z,94230.88
2023-02-11T18:06:35.043Z,94229.81
2023-02-11T18:09:17.878Z,94236.75
2023-02-11T18:12:00.606Z,94230.84
2023-02-11T18:14:43.389Z,94230.84
2023-02-11T18:17:26.924Z,94236.84
2023-02-11T18:20:10.606Z,94244.31
2023-02-11T18:22:54.794Z,94244.78
2023-02-11T18:25:37.763Z,94234.56
2023-02-11T18:28:21.025Z,94241.22
2023-02-11T18:31:04.097Z,94247.97
2023-02-11T18:33:47.877Z,94255.09
2023-02-11T18:36:30.637Z,94258.38
2023-02-11T18:39:14.786Z,94255.47
2023-02-11T18:41:58.921Z,94241.41
2023-02-11T18:44:41.759Z,94237.94
2023-02-11T18:47:24.514Z,94242.78
2023-02-11T18:50:10.092Z,94250.38
2023-02-11T18:52:52.925Z,94253.09
2023-02-11T18:55:39.180Z,94250.56
2023-02-11T18:58:22.169Z,94248.19
2023-02-11T19:01:12.017Z,94258.94
2023-02-11T19:03:57.309Z,94261.31
2023-02-11T19:06:40.391Z,94254.56
2023-02-11T19:09:23.159Z,94261.75
2023-02-11T19:12:08.588Z,94264.31
2023-02-11T19:14:51.717Z,94262.59
2023-02-11T19:17:34.520Z,94270.44
2023-02-11T19:20:17.845Z,94274.19
2023-02-11T19:23:00.893Z,94262.88
2023-02-11T19:25:47.751Z,94269.38
2023-02-11T19:28:32.103Z,94254.56
2023-02-11T19:31:15.133Z,94258.13
2023-02-11T19:33:57.971Z,94260.06
2023-02-11T19:36:41.168Z,94257.66
2023-02-11T19:39:24.860Z,94267.88
2023-02-11T19:42:08.100Z,94274.00
2023-02-11T19:44:52.250Z,94278.28
2023-02-11T19:47:35.099Z,94295.25
2023-02-11T19:50:18.177Z,94296.09
2023-02-11T19:53:02.393Z,94292.19
2023-02-11T19:55:45.357Z,94288.59
2023-02-11T19:58:28.089Z,94284.56
2023-02-11T20:01:15.459Z,94276.16
2023-02-11T20:03:58.311Z,94282.66
2023-02-11T20:06:41.115Z,94286.38
2023-02-11T20:09:23.869Z,94294.34
2023-02-11T20:12:07.076Z,94300.75
2023-02-11T20:14:49.817Z,94293.91
2023-02-11T20:17:33.964Z,94292.63
2023-02-11T20:20:18.508Z,94288.97
2023-02-11T20:23:01.125Z,94283.22
2023-02-11T20:25:43.920Z,94276.66
2023-02-11T20:28:26.738Z,94281.78
2023-02-11T20:31:11.792Z,94286.69
2023-02-11T20:33:56.497Z,94289.06
2023-02-11T20:36:40.362Z,94282.84
2023-02-11T20:39:24.435Z,94278.81
2023-02-11T20:42:07.403Z,94282.22
2023-02-11T20:44:50.169Z,94278.66
2023-02-11T20:47:32.986Z,94281.19
2023-02-11T20:50:17.266Z,94278.09
2023-02-11T20:53:00.046Z,94277.38
2023-02-11T20:55:42.841Z,94264.88
2023-02-11T20:58:25.653Z,94269.34
2023-02-11T21:01:09.780Z,94274.81
2023-02-11T21:03:54.927Z,94271.88
2023-02-11T21:06:41.836Z,94278.47
2023-02-11T21:09:27.412Z,94264.66
2023-02-11T21:12:10.171Z,94274.81
2023-02-11T21:14:54.909Z,94273.16
2023-02-11T21:17:37.748Z,94275.72
2023-02-11T21:20:20.664Z,94283.03
2023-02-11T21:23:04.853Z,94297.09
2023-02-11T21:25:48.249Z,94306.41
2023-02-11T21:28:31.082Z,94293.50
2023-02-11T21:31:21.408Z,94291.75
2023-02-11T21:34:05.333Z,94287.59
2023-02-11T21:36:48.122Z,94289.78
2023-02-11T21:39:32.568Z,94292.16
2023-02-11T21:42:15.397Z,94289.31
2023-02-11T21:44:58.139Z,94295.34
2023-02-11T21:47:40.917Z,94306.41
2023-02-11T21:50:23.750Z,94306.78
2023-02-11T21:53:07.148Z,94318.03
2023-02-11T21:55:51.349Z,94305.84
2023-02-11T21:58:34.847Z,94309.22
2023-02-11T22:01:20.976Z,94315.06
2023-02-11T22:04:04.025Z,94315.47
2023-02-11T22:06:46.831Z,94316.00
2023-02-11T22:09:30.367Z,94316.84
2023-02-11T22:12:14.511Z,94317.75
2023-02-11T22:14:57.313Z,94316.91
2023-02-11T22:17:40.102Z,94306.94
2023-02-11T22:20:23.048Z,94309.97
2023-02-11T22:23:05.880Z,94313.38
2023-02-11T22:25:48.736Z,94315.00
2023-02-11T22:28:33.054Z,94301.56
2023-02-11T22:31:17.876Z,94306.50
2023-02-11T22:34:01.483Z,94305.78
2023-02-11T22:36:45.417Z,94290.50
2023-02-11T22:39:28.209Z,94300.38
2023-02-11T22:42:11.024Z,94306.16
2023-02-11T22:44:55.259Z,94317.09
2023-02-11T22:47:38.895Z,94312.91
2023-02-11T22:50:21.654Z,94314.16
2023-02-11T22:53:04.501Z,94326.03
2023-02-11T22:55:47.266Z,94321.03
2023-02-11T22:58:30.098Z,94319.44
2023-02-11T23:01:15.080Z,94327.13
2023-02-11T23:03:57.951Z,94331.59
2023-02-11T23:06:41.026Z,94342.56
2023-02-11T23:09:23.806Z,94345.13
2023-02-11T23:12:06.833Z,94334.72
2023-02-11T23:14:51.464Z,94341.66
2023-02-11T23:17:35.655Z,94341.47
2023-02-11T23:20:18.536Z,94333.06
2023-02-11T23:23:01.356Z,94334.53
2023-02-11T23:25:45.259Z,94326.75
2023-02-11T23:28:28.196Z,94316.09
2023-02-11T23:31:19.748Z,94317.63
2023-02-11T23:34:04.841Z,94314.16
2023-02-11T23:36:47.672Z,94326.94
2023-02-11T23:39:30.541Z,94326.41
2023-02-11T23:42:13.373Z,94329.06
2023-02-11T23:44:56.181Z,94333.25
2023-02-11T23:47:39.273Z,94346.22
2023-02-11T23:50:23.462Z,94344.09
2023-02-11T23:53:06.294Z,94334.63
2023-02-11T23:55:49.158Z,94329.78
2023-02-11T23:58:31.983Z,94340.81
